sensor_id;sensor_type;location;lat;lon;timestamp;P1;durP1;ratioP1;P2;durP2;ratioP2
32228;SDS011;18717;48.034;11.186;2023-02-28T00:00:17;21.98;;;9.57;;
32228;SDS011;18717;48.034;11.186;2023-02-28T00:02:46;25.25;;;11.90;;
32228;SDS011;18717;48.034;11.186;2023-02-28T00:05:15;12.75;;;8.30;;
32228;SDS011;18717;48.034;11.186;2023-02-28T00:07:44;13.73;;;9.35;;
32228;SDS011;18717;48.034;11.186;2023-02-28T00:10:13;11.15;;;7.88;;
32228;SDS011;18717;48.034;11.186;2023-02-28T00:12:45;13.82;;;8.40;;
32228;SDS011;18717;48.034;11.186;2023-02-28T00:15:13;14.45;;;8.77;;
32228;SDS011;18717;48.034;11.186;2023-02-28T00:17:40;10.95;;;7.10;;
32228;SDS011;18717;48.034;11.186;2023-02-28T00:20:09;14.23;;;8.77;;
32228;SDS011;18717;48.034;11.186;2023-02-28T00:22:39;7.47;;;6.65;;
32228;SDS011;18717;48.034;11.186;2023-02-28T00:25:08;9.82;;;7.65;;
32228;SDS011;18717;48.034;11.186;2023-02-28T00:27:37;8.85;;;7.45;;
32228;SDS011;18717;48.034;11.186;2023-02-28T00:30:06;9.13;;;7.40;;
32228;SDS011;18717;48.034;11.186;2023-02-28T00:32:37;9.00;;;6.97;;
32228;SDS011;18717;48.034;11.186;2023-02-28T00:35:05;8.55;;;6.57;;
32228;SDS011;18717;48.034;11.186;2023-02-28T00:37:34;8.75;;;6.47;;
32228;SDS011;18717;48.034;11.186;2023-02-28T00:40:04;9.55;;;6.28;;
32228;SDS011;18717;48.034;11.186;2023-02-28T00:42:33;10.95;;;7.65;;
32228;SDS011;18717;48.034;11.186;2023-02-28T00:45:00;11.10;;;7.30;;
32228;SDS011;18717;48.034;11.186;2023-02-28T00:47:29;7.45;;;6.75;;
32228;SDS011;18717;48.034;11.186;2023-02-28T00:49:57;9.45;;;7.20;;
32228;SDS011;18717;48.034;11.186;2023-02-28T00:52:25;7.38;;;6.55;;
32228;SDS011;18717;48.034;11.186;2023-02-28T00:54:53;10.32;;;6.65;;
32228;SDS011;18717;48.034;11.186;2023-02-28T00:57:22;7.90;;;7.07;;
32228;SDS011;18717;48.034;11.186;2023-02-28T00:59:49;8.70;;;6.97;;
32228;SDS011;18717;48.034;11.186;2023-02-28T01:02:20;7.97;;;7.00;;
32228;SDS011;18717;48.034;11.186;2023-02-28T01:04:47;6.85;;;6.18;;
32228;SDS011;18717;48.034;11.186;2023-02-28T01:07:15;7.30;;;6.60;;
32228;SDS011;18717;48.034;11.186;2023-02-28T01:09:43;9.98;;;6.72;;
32228;SDS011;18717;48.034;11.186;2023-02-28T01:12:10;8.95;;;7.07;;
32228;SDS011;18717;48.034;11.186;2023-02-28T01:14:39;7.07;;;6.40;;
32228;SDS011;18717;48.034;11.186;2023-02-28T01:17:07;7.63;;;6.85;;
32228;SDS011;18717;48.034;11.186;2023-02-28T01:19:35;8.15;;;7.35;;
32228;SDS011;18717;48.034;11.186;2023-02-28T01:22:03;7.35;;;6.60;;
32228;SDS011;18717;48.034;11.186;2023-02-28T01:24:31;11.10;;;7.07;;
32228;SDS011;18717;48.034;11.186;2023-02-28T01:26:59;9.35;;;6.60;;
32228;SDS011;18717;48.034;11.186;2023-02-28T01:29:27;7.43;;;6.78;;
32228;SDS011;18717;48.034;11.186;2023-02-28T01:31:56;7.28;;;6.57;;
32228;SDS011;18717;48.034;11.186;2023-02-28T01:34:25;10.30;;;6.82;;
32228;SDS011;18717;48.034;11.186;2023-02-28T01:36:53;13.68;;;7.05;;
32228;SDS011;18717;48.034;11.186;2023-02-28T01:39:20;10.20;;;6.78;;
32228;SDS011;18717;48.034;11.186;2023-02-28T01:41:49;8.70;;;7.85;;
32228;SDS011;18717;48.034;11.186;2023-02-28T01:47:23;9.80;;;6.65;;
32228;SDS011;18717;48.034;11.186;2023-02-28T01:49:53;7.57;;;6.85;;
32228;SDS011;18717;48.034;11.186;2023-02-28T01:52:21;11.10;;;7.65;;
32228;SDS011;18717;48.034;11.186;2023-02-28T01:54:51;7.70;;;7.00;;
32228;SDS011;18717;48.034;11.186;2023-02-28T01:57:20;10.00;;;7.15;;
32228;SDS011;18717;48.034;11.186;2023-02-28T01:59:50;9.13;;;6.88;;
32228;SDS011;18717;48.034;11.186;2023-02-28T02:02:20;9.73;;;7.05;;
32228;SDS011;18717;48.034;11.186;2023-02-28T02:04:51;10.25;;;6.68;;
32228;SDS011;18717;48.034;11.186;2023-02-28T02:07:21;9.25;;;7.82;;
32228;SDS011;18717;48.034;11.186;2023-02-28T02:09:56;6.88;;;6.28;;
32228;SDS011;18717;48.034;11.186;2023-02-28T02:12:30;8.00;;;6.95;;
32228;SDS011;18717;48.034;11.186;2023-02-28T02:15:07;7.22;;;6.63;;
32228;SDS011;18717;48.034;11.186;2023-02-28T02:17:39;8.80;;;6.50;;
32228;SDS011;18717;48.034;11.186;2023-02-28T02:20:20;7.82;;;7.00;;
32228;SDS011;18717;48.034;11.186;2023-02-28T02:26:22;9.25;;;7.13;;
32228;SDS011;18717;48.034;11.186;2023-02-28T02:29:04;7.85;;;7.18;;
32228;SDS011;18717;48.034;11.186;2023-02-28T02:31:48;8.00;;;7.13;;
32228;SDS011;18717;48.034;11.186;2023-02-28T02:34:32;9.48;;;7.65;;
32228;SDS011;18717;48.034;11.186;2023-02-28T02:37:14;9.63;;;7.00;;
32228;SDS011;18717;48.034;11.186;2023-02-28T02:39:48;8.63;;;6.95;;
32228;SDS011;18717;48.034;11.186;2023-02-28T02:42:20;8.82;;;7.90;;
32228;SDS011;18717;48.034;11.186;2023-02-28T02:44:52;8.35;;;6.72;;
32228;SDS011;18717;48.034;11.186;2023-02-28T02:47:24;7.38;;;6.60;;
32228;SDS011;18717;48.034;11.186;2023-02-28T02:49:55;7.50;;;6.70;;
32228;SDS011;18717;48.034;11.186;2023-02-28T02:52:25;11.77;;;7.60;;
32228;SDS011;18717;48.034;11.186;2023-02-28T02:54:57;8.52;;;6.53;;
32228;SDS011;18717;48.034;11.186;2023-02-28T02:57:27;9.15;;;7.38;;
32228;SDS011;18717;48.034;11.186;2023-02-28T02:59:59;10.23;;;7.28;;
32228;SDS011;18717;48.034;11.186;2023-02-28T03:02:27;8.20;;;7.10;;
32228;SDS011;18717;48.034;11.186;2023-02-28T03:05:02;9.88;;;7.03;;
32228;SDS011;18717;48.034;11.186;2023-02-28T03:07:32;10.55;;;6.93;;
32228;SDS011;18717;48.034;11.186;2023-02-28T03:09:59;9.55;;;7.13;;
32228;SDS011;18717;48.034;11.186;2023-02-28T03:12:29;14.55;;;7.88;;
32228;SDS011;18717;48.034;11.186;2023-02-28T03:15:03;8.00;;;6.40;;
32228;SDS011;18717;48.034;11.186;2023-02-28T03:17:50;9.68;;;7.10;;
32228;SDS011;18717;48.034;11.186;2023-02-28T03:20:27;7.63;;;6.93;;
32228;SDS011;18717;48.034;11.186;2023-02-28T03:23:03;10.55;;;7.05;;
32228;SDS011;18717;48.034;11.186;2023-02-28T03:25:46;8.82;;;7.20;;
32228;SDS011;18717;48.034;11.186;2023-02-28T03:28:23;10.20;;;7.63;;
32228;SDS011;18717;48.034;11.186;2023-02-28T03:30:58;8.85;;;7.68;;
32228;SDS011;18717;48.034;11.186;2023-02-28T03:33:30;8.30;;;6.90;;
32228;SDS011;18717;48.034;11.186;2023-02-28T03:36:02;11.55;;;7.47;;
32228;SDS011;18717;48.034;11.186;2023-02-28T03:38:33;10.30;;;7.03;;
32228;SDS011;18717;48.034;11.186;2023-02-28T03:41:05;9.07;;;7.50;;
32228;SDS011;18717;48.034;11.186;2023-02-28T03:43:43;8.35;;;7.15;;
32228;SDS011;18717;48.034;11.186;2023-02-28T03:46:14;11.02;;;7.00;;
32228;SDS011;18717;48.034;11.186;2023-02-28T03:48:49;12.18;;;7.35;;
32228;SDS011;18717;48.034;11.186;2023-02-28T03:51:20;10.05;;;8.10;;
32228;SDS011;18717;48.034;11.186;2023-02-28T03:53:50;8.52;;;7.57;;
32228;SDS011;18717;48.034;11.186;2023-02-28T03:56:21;10.98;;;7.68;;
32228;SDS011;18717;48.034;11.186;2023-02-28T03:58:51;8.25;;;7.38;;
32228;SDS011;18717;48.034;11.186;2023-02-28T04:03:50;11.10;;;7.05;;
32228;SDS011;18717;48.034;11.186;2023-02-28T04:06:20;7.97;;;6.55;;
32228;SDS011;18717;48.034;11.186;2023-02-28T04:08:48;10.60;;;6.60;;
32228;SDS011;18717;48.034;11.186;2023-02-28T04:11:18;8.85;;;6.25;;
32228;SDS011;18717;48.034;11.186;2023-02-28T04:13:48;12.60;;;8.25;;
32228;SDS011;18717;48.034;11.186;2023-02-28T04:16:16;10.07;;;7.47;;
32228;SDS011;18717;48.034;11.186;2023-02-28T04:19:00;14.43;;;8.15;;
32228;SDS011;18717;48.034;11.186;2023-02-28T04:21:31;13.68;;;7.93;;
32228;SDS011;18717;48.034;11.186;2023-02-28T04:23:59;12.10;;;8.18;;
32228;SDS011;18717;48.034;11.186;2023-02-28T04:26:28;13.18;;;8.38;;
32228;SDS011;18717;48.034;11.186;2023-02-28T04:28:57;14.50;;;8.27;;
32228;SDS011;18717;48.034;11.186;2023-02-28T04:31:24;9.98;;;7.53;;
32228;SDS011;18717;48.034;11.186;2023-02-28T04:33:53;13.35;;;7.45;;
32228;SDS011;18717;48.034;11.186;2023-02-28T04:36:20;11.52;;;9.15;;
32228;SDS011;18717;48.034;11.186;2023-02-28T04:38:50;11.63;;;8.88;;
32228;SDS011;18717;48.034;11.186;2023-02-28T04:41:18;12.82;;;8.23;;
32228;SDS011;18717;48.034;11.186;2023-02-28T04:43:46;11.35;;;8.32;;
32228;SDS011;18717;48.034;11.186;2023-02-28T04:46:14;14.27;;;9.23;;
32228;SDS011;18717;48.034;11.186;2023-02-28T04:48:42;13.73;;;9.50;;
32228;SDS011;18717;48.034;11.186;2023-02-28T04:51:11;17.23;;;10.45;;
32228;SDS011;18717;48.034;11.186;2023-02-28T04:53:41;13.48;;;9.80;;
32228;SDS011;18717;48.034;11.186;2023-02-28T04:56:11;16.48;;;9.32;;
32228;SDS011;18717;48.034;11.186;2023-02-28T04:58:40;16.25;;;10.57;;
32228;SDS011;18717;48.034;11.186;2023-02-28T05:01:15;12.90;;;9.55;;
32228;SDS011;18717;48.034;11.186;2023-02-28T05:03:45;14.57;;;10.23;;
32228;SDS011;18717;48.034;11.186;2023-02-28T05:06:13;20.48;;;10.98;;
32228;SDS011;18717;48.034;11.186;2023-02-28T05:08:41;15.55;;;10.18;;
32228;SDS011;18717;48.034;11.186;2023-02-28T05:11:13;15.32;;;8.98;;
32228;SDS011;18717;48.034;11.186;2023-02-28T05:13:45;13.68;;;10.18;;
32228;SDS011;18717;48.034;11.186;2023-02-28T05:16:14;17.52;;;10.32;;
32228;SDS011;18717;48.034;11.186;2023-02-28T05:18:42;14.90;;;9.23;;
32228;SDS011;18717;48.034;11.186;2023-02-28T05:23:59;16.17;;;10.68;;
32228;SDS011;18717;48.034;11.186;2023-02-28T05:26:29;19.90;;;12.60;;
32228;SDS011;18717;48.034;11.186;2023-02-28T05:28:57;17.63;;;11.30;;
32228;SDS011;18717;48.034;11.186;2023-02-28T05:32:31;16.73;;;11.00;;
32228;SDS011;18717;48.034;11.186;2023-02-28T05:34:54;20.10;;;12.25;;
32228;SDS011;18717;48.034;11.186;2023-02-28T05:37:22;25.75;;;12.77;;
32228;SDS011;18717;48.034;11.186;2023-02-28T05:39:50;21.02;;;13.10;;
32228;SDS011;18717;48.034;11.186;2023-02-28T05:42:19;24.23;;;13.52;;
32228;SDS011;18717;48.034;11.186;2023-02-28T05:44:46;24.63;;;13.35;;
32228;SDS011;18717;48.034;11.186;2023-02-28T05:47:14;22.90;;;14.18;;
32228;SDS011;18717;48.034;11.186;2023-02-28T05:49:43;20.23;;;13.25;;
32228;SDS011;18717;48.034;11.186;2023-02-28T05:52:10;18.60;;;11.88;;
32228;SDS011;18717;48.034;11.186;2023-02-28T05:54:38;23.98;;;14.00;;
32228;SDS011;18717;48.034;11.186;2023-02-28T05:57:05;18.15;;;12.73;;
32228;SDS011;18717;48.034;11.186;2023-02-28T05:59:50;24.77;;;14.93;;
32228;SDS011;18717;48.034;11.186;2023-02-28T06:02:18;23.85;;;14.40;;
32228;SDS011;18717;48.034;11.186;2023-02-28T06:04:46;18.20;;;11.23;;
32228;SDS011;18717;48.034;11.186;2023-02-28T06:07:13;25.42;;;16.98;;
32228;SDS011;18717;48.034;11.186;2023-02-28T06:09:41;26.63;;;12.85;;
32228;SDS011;18717;48.034;11.186;2023-02-28T06:12:09;21.75;;;14.15;;
32228;SDS011;18717;48.034;11.186;2023-02-28T06:14:37;26.50;;;14.60;;
32228;SDS011;18717;48.034;11.186;2023-02-28T06:17:06;21.10;;;12.13;;
32228;SDS011;18717;48.034;11.186;2023-02-28T06:19:34;25.13;;;14.32;;
32228;SDS011;18717;48.034;11.186;2023-02-28T06:22:03;24.42;;;14.40;;
32228;SDS011;18717;48.034;11.186;2023-02-28T06:24:30;22.73;;;13.90;;
32228;SDS011;18717;48.034;11.186;2023-02-28T06:26:58;17.77;;;12.93;;
32228;SDS011;18717;48.034;11.186;2023-02-28T06:29:31;22.98;;;14.77;;
32228;SDS011;18717;48.034;11.186;2023-02-28T06:31:59;31.90;;;18.65;;
32228;SDS011;18717;48.034;11.186;2023-02-28T06:34:28;22.88;;;13.77;;
32228;SDS011;18717;48.034;11.186;2023-02-28T06:36:55;26.23;;;15.23;;
32228;SDS011;18717;48.034;11.186;2023-02-28T06:39:23;24.75;;;16.25;;
32228;SDS011;18717;48.034;11.186;2023-02-28T06:41:50;30.60;;;16.60;;
32228;SDS011;18717;48.034;11.186;2023-02-28T06:44:21;20.30;;;14.05;;
32228;SDS011;18717;48.034;11.186;2023-02-28T06:46:50;16.40;;;12.13;;
32228;SDS011;18717;48.034;11.186;2023-02-28T06:49:17;29.15;;;16.45;;
32228;SDS011;18717;48.034;11.186;2023-02-28T06:51:46;21.88;;;13.27;;
32228;SDS011;18717;48.034;11.186;2023-02-28T06:54:14;21.10;;;13.98;;
32228;SDS011;18717;48.034;11.186;2023-02-28T06:56:41;28.77;;;17.38;;
32228;SDS011;18717;48.034;11.186;2023-02-28T06:59:09;28.52;;;17.27;;
32228;SDS011;18717;48.034;11.186;2023-02-28T07:01:37;27.90;;;16.00;;
32228;SDS011;18717;48.034;11.186;2023-02-28T07:04:05;29.55;;;15.32;;
32228;SDS011;18717;48.034;11.186;2023-02-28T07:06:33;25.25;;;14.18;;
32228;SDS011;18717;48.034;11.186;2023-02-28T07:09:02;26.55;;;15.15;;
32228;SDS011;18717;48.034;11.186;2023-02-28T07:11:31;28.92;;;17.10;;
32228;SDS011;18717;48.034;11.186;2023-02-28T07:13:58;27.27;;;16.73;;
32228;SDS011;18717;48.034;11.186;2023-02-28T07:16:26;30.33;;;18.25;;
32228;SDS011;18717;48.034;11.186;2023-02-28T07:18:54;17.25;;;12.05;;
32228;SDS011;18717;48.034;11.186;2023-02-28T07:21:22;26.77;;;15.43;;
32228;SDS011;18717;48.034;11.186;2023-02-28T07:23:49;23.80;;;15.60;;
32228;SDS011;18717;48.034;11.186;2023-02-28T07:26:19;26.33;;;15.82;;
32228;SDS011;18717;48.034;11.186;2023-02-28T07:28:48;30.95;;;17.05;;
32228;SDS011;18717;48.034;11.186;2023-02-28T07:31:15;31.02;;;18.80;;
32228;SDS011;18717;48.034;11.186;2023-02-28T07:33:44;24.35;;;15.35;;
32228;SDS011;18717;48.034;11.186;2023-02-28T07:36:13;27.77;;;16.50;;
32228;SDS011;18717;48.034;11.186;2023-02-28T07:38:43;22.97;;;16.07;;
32228;SDS011;18717;48.034;11.186;2023-02-28T07:41:14;28.67;;;15.75;;
32228;SDS011;18717;48.034;11.186;2023-02-28T07:43:43;24.58;;;16.10;;
32228;SDS011;18717;48.034;11.186;2023-02-28T07:46:12;28.52;;;15.93;;
32228;SDS011;18717;48.034;11.186;2023-02-28T07:48:42;25.83;;;15.90;;
32228;SDS011;18717;48.034;11.186;2023-02-28T07:51:10;33.60;;;18.58;;
32228;SDS011;18717;48.034;11.186;2023-02-28T07:53:37;26.67;;;14.15;;
32228;SDS011;18717;48.034;11.186;2023-02-28T07:56:05;23.77;;;15.80;;
32228;SDS011;18717;48.034;11.186;2023-02-28T07:58:34;25.63;;;15.68;;
32228;SDS011;18717;48.034;11.186;2023-02-28T08:01:06;22.55;;;15.77;;
32228;SDS011;18717;48.034;11.186;2023-02-28T08:03:34;28.98;;;17.42;;
32228;SDS011;18717;48.034;11.186;2023-02-28T08:06:02;27.95;;;16.90;;
32228;SDS011;18717;48.034;11.186;2023-02-28T08:08:30;33.53;;;17.50;;
32228;SDS011;18717;48.034;11.186;2023-02-28T08:10:58;33.83;;;17.08;;
32228;SDS011;18717;48.034;11.186;2023-02-28T08:13:27;23.40;;;15.88;;
32228;SDS011;18717;48.034;11.186;2023-02-28T08:15:55;27.30;;;16.00;;
32228;SDS011;18717;48.034;11.186;2023-02-28T08:18:25;26.95;;;16.58;;
32228;SDS011;18717;48.034;11.186;2023-02-28T08:20:52;24.20;;;15.68;;
32228;SDS011;18717;48.034;11.186;2023-02-28T08:23:20;29.77;;;17.35;;
32228;SDS011;18717;48.034;11.186;2023-02-28T08:25:52;31.23;;;16.80;;
32228;SDS011;18717;48.034;11.186;2023-02-28T08:28:20;27.25;;;16.67;;
32228;SDS011;18717;48.034;11.186;2023-02-28T08:30:50;26.15;;;16.63;;
32228;SDS011;18717;48.034;11.186;2023-02-28T08:33:17;29.23;;;18.17;;
32228;SDS011;18717;48.034;11.186;2023-02-28T08:35:46;23.30;;;15.23;;
32228;SDS011;18717;48.034;11.186;2023-02-28T08:38:14;31.77;;;20.50;;
32228;SDS011;18717;48.034;11.186;2023-02-28T08:40:42;31.42;;;17.67;;
32228;SDS011;18717;48.034;11.186;2023-02-28T08:43:09;30.05;;;16.95;;
32228;SDS011;18717;48.034;11.186;2023-02-28T08:45:37;23.52;;;15.75;;
32228;SDS011;18717;48.034;11.186;2023-02-28T08:48:05;26.58;;;16.50;;
32228;SDS011;18717;48.034;11.186;2023-02-28T08:50:32;27.15;;;16.80;;
32228;SDS011;18717;48.034;11.186;2023-02-28T08:53:01;25.17;;;15.63;;
32228;SDS011;18717;48.034;11.186;2023-02-28T08:55:29;31.10;;;15.95;;
32228;SDS011;18717;48.034;11.186;2023-02-28T08:57:56;26.02;;;16.63;;
32228;SDS011;18717;48.034;11.186;2023-02-28T09:00:24;30.27;;;16.55;;
32228;SDS011;18717;48.034;11.186;2023-02-28T09:02:52;26.98;;;15.77;;
32228;SDS011;18717;48.034;11.186;2023-02-28T09:05:20;31.73;;;17.13;;
32228;SDS011;18717;48.034;11.186;2023-02-28T09:07:49;31.42;;;16.45;;
32228;SDS011;18717;48.034;11.186;2023-02-28T09:10:18;27.50;;;15.57;;
32228;SDS011;18717;48.034;11.186;2023-02-28T09:12:45;33.58;;;19.00;;
32228;SDS011;18717;48.034;11.186;2023-02-28T09:15:13;27.00;;;17.98;;
32228;SDS011;18717;48.034;11.186;2023-02-28T09:17:41;30.30;;;17.42;;
32228;SDS011;18717;48.034;11.186;2023-02-28T09:20:12;27.33;;;16.43;;
32228;SDS011;18717;48.034;11.186;2023-02-28T09:22:39;32.45;;;18.45;;
32228;SDS011;18717;48.034;11.186;2023-02-28T09:25:07;31.45;;;17.33;;
32228;SDS011;18717;48.034;11.186;2023-02-28T09:27:36;26.42;;;17.63;;
32228;SDS011;18717;48.034;11.186;2023-02-28T09:30:04;25.67;;;17.83;;
32228;SDS011;18717;48.034;11.186;2023-02-28T09:32:33;28.20;;;18.92;;
32228;SDS011;18717;48.034;11.186;2023-02-28T09:35:00;27.77;;;18.08;;
32228;SDS011;18717;48.034;11.186;2023-02-28T09:37:28;23.77;;;15.73;;
32228;SDS011;18717;48.034;11.186;2023-02-28T09:39:57;27.17;;;18.65;;
32228;SDS011;18717;48.034;11.186;2023-02-28T09:42:27;27.70;;;18.08;;
32228;SDS011;18717;48.034;11.186;2023-02-28T09:45:00;29.33;;;18.15;;
32228;SDS011;18717;48.034;11.186;2023-02-28T09:47:30;28.30;;;18.35;;
32228;SDS011;18717;48.034;11.186;2023-02-28T09:50:00;35.97;;;18.75;;
32228;SDS011;18717;48.034;11.186;2023-02-28T09:52:31;33.50;;;18.98;;
32228;SDS011;18717;48.034;11.186;2023-02-28T09:55:00;27.58;;;17.17;;
32228;SDS011;18717;48.034;11.186;2023-02-28T09:57:34;29.85;;;18.05;;
32228;SDS011;18717;48.034;11.186;2023-02-28T10:00:10;28.20;;;16.20;;
32228;SDS011;18717;48.034;11.186;2023-02-28T10:05:48;20.30;;;13.77;;
32228;SDS011;18717;48.034;11.186;2023-02-28T10:08:18;28.85;;;16.58;;
32228;SDS011;18717;48.034;11.186;2023-02-28T10:10:51;29.70;;;18.50;;
32228;SDS011;18717;48.034;11.186;2023-02-28T10:13:23;22.73;;;14.55;;
32228;SDS011;18717;48.034;11.186;2023-02-28T10:15:55;30.27;;;18.20;;
32228;SDS011;18717;48.034;11.186;2023-02-28T10:18:25;30.85;;;18.15;;
32228;SDS011;18717;48.034;11.186;2023-02-28T10:20:54;27.60;;;18.92;;
32228;SDS011;18717;48.034;11.186;2023-02-28T10:23:23;30.58;;;17.13;;
32228;SDS011;18717;48.034;11.186;2023-02-28T10:25:54;32.25;;;20.75;;
32228;SDS011;18717;48.034;11.186;2023-02-28T10:28:24;23.55;;;15.10;;
32228;SDS011;18717;48.034;11.186;2023-02-28T10:30:54;28.10;;;18.52;;
32228;SDS011;18717;48.034;11.186;2023-02-28T10:33:22;29.17;;;17.90;;
32228;SDS011;18717;48.034;11.186;2023-02-28T10:35:52;30.25;;;17.92;;
32228;SDS011;18717;48.034;11.186;2023-02-28T10:38:20;31.25;;;19.00;;
32228;SDS011;18717;48.034;11.186;2023-02-28T10:40:50;24.23;;;16.67;;
32228;SDS011;18717;48.034;11.186;2023-02-28T10:43:19;32.47;;;19.50;;
32228;SDS011;18717;48.034;11.186;2023-02-28T10:45:57;27.20;;;18.10;;
32228;SDS011;18717;48.034;11.186;2023-02-28T10:48:30;22.45;;;15.75;;
32228;SDS011;18717;48.034;11.186;2023-02-28T10:51:00;26.20;;;17.67;;
32228;SDS011;18717;48.034;11.186;2023-02-28T10:53:31;26.73;;;18.73;;
32228;SDS011;18717;48.034;11.186;2023-02-28T10:56:21;26.23;;;19.45;;
32228;SDS011;18717;48.034;11.186;2023-02-28T10:58:52;26.77;;;18.52;;
32228;SDS011;18717;48.034;11.186;2023-02-28T11:01:23;28.95;;;18.75;;
32228;SDS011;18717;48.034;11.186;2023-02-28T11:03:52;32.13;;;20.25;;
32228;SDS011;18717;48.034;11.186;2023-02-28T11:06:20;29.15;;;19.60;;
32228;SDS011;18717;48.034;11.186;2023-02-28T11:08:50;30.13;;;19.23;;
32228;SDS011;18717;48.034;11.186;2023-02-28T11:11:22;30.20;;;19.25;;
32228;SDS011;18717;48.034;11.186;2023-02-28T11:13:57;28.33;;;18.17;;
32228;SDS011;18717;48.034;11.186;2023-02-28T11:16:33;38.03;;;20.27;;
32228;SDS011;18717;48.034;11.186;2023-02-28T11:19:02;35.50;;;18.92;;
32228;SDS011;18717;48.034;11.186;2023-02-28T11:21:31;28.58;;;17.13;;
32228;SDS011;18717;48.034;11.186;2023-02-28T11:24:01;30.05;;;20.65;;
32228;SDS011;18717;48.034;11.186;2023-02-28T11:26:35;29.00;;;19.38;;
32228;SDS011;18717;48.034;11.186;2023-02-28T11:29:09;26.38;;;18.17;;
32228;SDS011;18717;48.034;11.186;2023-02-28T11:31:40;29.98;;;18.75;;
32228;SDS011;18717;48.034;11.186;2023-02-28T11:34:22;31.75;;;18.45;;
32228;SDS011;18717;48.034;11.186;2023-02-28T11:36:52;32.15;;;20.90;;
32228;SDS011;18717;48.034;11.186;2023-02-28T11:39:22;32.38;;;18.45;;
32228;SDS011;18717;48.034;11.186;2023-02-28T11:41:54;21.92;;;17.27;;
32228;SDS011;18717;48.034;11.186;2023-02-28T11:44:35;27.37;;;13.57;;
32228;SDS011;18717;48.034;11.186;2023-02-28T11:47:12;32.05;;;20.27;;
32228;SDS011;18717;48.034;11.186;2023-02-28T11:49:47;26.42;;;18.30;;
32228;SDS011;18717;48.034;11.186;2023-02-28T11:52:20;28.63;;;19.85;;
32228;SDS011;18717;48.034;11.186;2023-02-28T11:54:52;29.38;;;19.33;;
32228;SDS011;18717;48.034;11.186;2023-02-28T11:57:28;29.85;;;18.80;;
32228;SDS011;18717;48.034;11.186;2023-02-28T12:00:02;30.60;;;19.05;;
32228;SDS011;18717;48.034;11.186;2023-02-28T12:02:37;49.38;;;24.52;;
32228;SDS011;18717;48.034;11.186;2023-02-28T12:05:12;27.38;;;20.15;;
32228;SDS011;18717;48.034;11.186;2023-02-28T12:07:48;31.25;;;18.92;;
32228;SDS011;18717;48.034;11.186;2023-02-28T12:10:22;32.80;;;21.63;;
32228;SDS011;18717;48.034;11.186;2023-02-28T12:12:58;28.90;;;20.33;;
32228;SDS011;18717;48.034;11.186;2023-02-28T12:15:38;34.72;;;21.05;;
32228;SDS011;18717;48.034;11.186;2023-02-28T12:18:23;30.25;;;19.92;;
32228;SDS011;18717;48.034;11.186;2023-02-28T12:20:58;30.08;;;19.83;;
32228;SDS011;18717;48.034;11.186;2023-02-28T12:23:36;28.88;;;19.48;;
32228;SDS011;18717;48.034;11.186;2023-02-28T12:26:15;30.08;;;20.65;;
32228;SDS011;18717;48.034;11.186;2023-02-28T12:28:46;27.98;;;18.52;;
32228;SDS011;18717;48.034;11.186;2023-02-28T12:31:17;26.55;;;18.33;;
32228;SDS011;18717;48.034;11.186;2023-02-28T12:33:47;29.73;;;20.25;;
32228;SDS011;18717;48.034;11.186;2023-02-28T12:38:48;28.35;;;18.85;;
32228;SDS011;18717;48.034;11.186;2023-02-28T12:41:24;27.63;;;19.02;;
32228;SDS011;18717;48.034;11.186;2023-02-28T12:43:55;28.58;;;19.17;;
32228;SDS011;18717;48.034;11.186;2023-02-28T12:46:28;30.42;;;20.27;;
32228;SDS011;18717;48.034;11.186;2023-02-28T12:49:05;30.27;;;19.10;;
32228;SDS011;18717;48.034;11.186;2023-02-28T12:51:35;25.50;;;17.73;;
32228;SDS011;18717;48.034;11.186;2023-02-28T12:54:06;29.10;;;20.33;;
32228;SDS011;18717;48.034;11.186;2023-02-28T12:56:40;28.50;;;19.77;;
32228;SDS011;18717;48.034;11.186;2023-02-28T12:59:13;37.35;;;19.15;;
32228;SDS011;18717;48.034;11.186;2023-02-28T13:01:54;27.35;;;19.15;;
32228;SDS011;18717;48.034;11.186;2023-02-28T13:10:09;32.03;;;19.35;;
32228;SDS011;18717;48.034;11.186;2023-02-28T13:12:37;32.35;;;21.15;;
32228;SDS011;18717;48.034;11.186;2023-02-28T13:15:16;28.27;;;19.13;;
32228;SDS011;18717;48.034;11.186;2023-02-28T13:17:48;29.50;;;18.70;;
32228;SDS011;18717;48.034;11.186;2023-02-28T13:20:19;30.17;;;19.10;;
32228;SDS011;18717;48.034;11.186;2023-02-28T13:22:49;30.52;;;19.95;;
32228;SDS011;18717;48.034;11.186;2023-02-28T13:34:39;26.08;;;18.40;;
32228;SDS011;18717;48.034;11.186;2023-02-28T13:40:06;23.85;;;18.30;;
32228;SDS011;18717;48.034;11.186;2023-02-28T13:42:53;29.85;;;20.20;;
32228;SDS011;18717;48.034;11.186;2023-02-28T13:45:22;33.88;;;20.30;;
32228;SDS011;18717;48.034;11.186;2023-02-28T13:47:52;30.48;;;19.55;;
32228;SDS011;18717;48.034;11.186;2023-02-28T13:50:22;29.65;;;20.50;;
32228;SDS011;18717;48.034;11.186;2023-02-28T13:53:02;31.40;;;20.92;;
32228;SDS011;18717;48.034;11.186;2023-02-28T13:55:57;27.80;;;18.10;;
32228;SDS011;18717;48.034;11.186;2023-02-28T13:58:36;23.48;;;17.58;;
32228;SDS011;18717;48.034;11.186;2023-02-28T14:01:15;26.15;;;18.88;;
32228;SDS011;18717;48.034;11.186;2023-02-28T14:03:53;24.80;;;19.58;;
32228;SDS011;18717;48.034;11.186;2023-02-28T14:06:29;27.00;;;19.75;;
32228;SDS011;18717;48.034;11.186;2023-02-28T14:09:01;28.10;;;19.35;;
32228;SDS011;18717;48.034;11.186;2023-02-28T14:11:34;39.13;;;18.30;;
32228;SDS011;18717;48.034;11.186;2023-02-28T14:14:02;28.40;;;20.50;;
32228;SDS011;18717;48.034;11.186;2023-02-28T14:16:35;31.15;;;22.00;;
32228;SDS011;18717;48.034;11.186;2023-02-28T14:19:09;29.92;;;22.27;;
32228;SDS011;18717;48.034;11.186;2023-02-28T14:21:39;26.77;;;18.85;;
32228;SDS011;18717;48.034;11.186;2023-02-28T14:24:20;20.90;;;17.85;;
32228;SDS011;18717;48.034;11.186;2023-02-28T14:27:08;28.45;;;19.90;;
32228;SDS011;18717;48.034;11.186;2023-02-28T14:32:41;30.05;;;20.70;;
32228;SDS011;18717;48.034;11.186;2023-02-28T14:35:15;28.50;;;20.42;;
32228;SDS011;18717;48.034;11.186;2023-02-28T14:37:48;27.55;;;20.70;;
32228;SDS011;18717;48.034;11.186;2023-02-28T14:40:19;31.60;;;18.80;;
32228;SDS011;18717;48.034;11.186;2023-02-28T14:42:54;28.23;;;18.02;;
32228;SDS011;18717;48.034;11.186;2023-02-28T14:45:23;26.27;;;18.55;;
32228;SDS011;18717;48.034;11.186;2023-02-28T14:47:51;27.15;;;18.92;;
32228;SDS011;18717;48.034;11.186;2023-02-28T14:50:20;25.60;;;20.58;;
32228;SDS011;18717;48.034;11.186;2023-02-28T14:52:50;27.48;;;19.70;;
32228;SDS011;18717;48.034;11.186;2023-02-28T14:55:23;25.83;;;19.15;;
32228;SDS011;18717;48.034;11.186;2023-02-28T14:57:52;24.42;;;20.27;;
32228;SDS011;18717;48.034;11.186;2023-02-28T15:00:22;26.35;;;19.00;;
32228;SDS011;18717;48.034;11.186;2023-02-28T15:02:51;23.75;;;18.27;;
32228;SDS011;18717;48.034;11.186;2023-02-28T15:05:22;32.30;;;20.90;;
32228;SDS011;18717;48.034;11.186;2023-02-28T15:08:11;27.98;;;19.58;;
32228;SDS011;18717;48.034;11.186;2023-02-28T15:10:41;33.65;;;22.38;;
32228;SDS011;18717;48.034;11.186;2023-02-28T15:13:11;29.98;;;20.38;;
32228;SDS011;18717;48.034;11.186;2023-02-28T15:15:42;25.70;;;18.48;;